Accueil
METAR-TAF:

METAR-TAF

Aéroports :

Iğdır, Turquie

latitude: 39-58-36N, longitude: 43-52-36E, altitude: 945 m

Observation

Le bulletin a été fait il y a 52 minutes, à 05:50 UTC
Vent 5 kt de nord, variant entre nord-ouest et est/nord-est
Température 6°C
Humidité 45%
Pression 1017 hPa
Visibilité 10 km ou plus
Nuages épars à une hauteur de 10000 ft

METAR: LTCT 230550Z 01005KT 320V070 9999 SCT100 06/M05 Q1017

Heure: 09:42 (06:42 UTC)

Prévision

Le bulletin a été fait il y a 2 heures et 2 minutes, à 04:40 UTC
Prévision valable du 23 à 06 UTC au 23 à 15 UTC
Vent 2 kt de direction variable
Visibilité 10 km ou plus
Nuages épars à une hauteur de 3500 ft
Nuages fragmentés à une hauteur de 8000 ft

TAF: LTCT 230440Z 2306/2315 VRB02KT 9999 SCT035 BKN080

Observations et prévisions météorologiques de plus de 4000 aéroports (messages METAR et TAF).

Les stations disponibles sont représentées par des disques jaunes et rouges sur la carte.

Passer la souris dessus pour voir le nom de la station.

Cliquer dessus pour voir les observations et prévisions météorologiques.

Pour changer de carte: cliquez sur les boutons verts avec une croix noire pour zoomer, sur le bouton vert avec un tiret pour effectuer un zoom arrière, ou sur les flèches vertes pour les cartes adjacentes.


METAR-TAF: